createdAt,value
2023-03-29T00:02:19.674Z,61493.56
2023-03-29T00:07:25.970Z,61553.97
2023-03-29T00:12:28.815Z,61529.75
2023-03-29T00:17:31.851Z,61539.00
2023-03-29T00:22:37.245Z,61556.63
2023-03-29T00:27:40.440Z,61570.97
2023-03-29T00:32:43.264Z,61551.91
2023-03-29T00:37:50.971Z,61551.38
2023-03-29T00:42:55.683Z,61530.75
2023-03-29T00:48:02.307Z,61540.53
2023-03-29T00:53:10.977Z,61559.59
2023-03-29T00:58:18.943Z,61556.53
2023-03-29T01:03:24.811Z,61581.81
2023-03-29T01:08:33.396Z,61526.50
2023-03-29T01:13:40.254Z,61522.75
2023-03-29T01:18:43.827Z,61537.84
2023-03-29T01:24:07.092Z,61514.97
2023-03-29T01:29:14.841Z,61539.84
2023-03-29T01:34:22.603Z,61508.50
2023-03-29T01:39:25.453Z,61513.34
2023-03-29T01:44:32.750Z,61549.66
2023-03-29T01:49:42.446Z,61539.34
2023-03-29T01:54:53.063Z,61528.63
2023-03-29T01:59:58.814Z,61555.09
2023-03-29T02:05:01.910Z,61553.13
2023-03-29T02:10:05.165Z,61549.16
2023-03-29T02:15:13.984Z,61552.25
2023-03-29T02:20:22.323Z,61571.44
2023-03-29T02:25:26.005Z,61599.44
2023-03-29T02:30:49.274Z,61592.81
2023-03-29T02:35:57.076Z,61560.41
2023-03-29T02:41:00.904Z,61558.50
2023-03-29T02:46:07.738Z,61560.69
2023-03-29T02:51:19.367Z,61586.50
2023-03-29T02:56:22.605Z,61571.13
2023-03-29T03:01:26.800Z,61580.00
2023-03-29T03:06:29.985Z,61564.97
2023-03-29T03:11:32.557Z,61560.50
2023-03-29T03:16:37.054Z,61601.41
2023-03-29T03:21:39.708Z,61591.16
2023-03-29T03:26:42.308Z,61608.75
2023-03-29T03:31:46.270Z,61583.06
2023-03-29T03:36:48.869Z,61613.53
2023-03-29T03:41:51.446Z,61616.56
2023-03-29T03:46:55.352Z,61582.47
2023-03-29T03:51:57.950Z,61576.66
2023-03-29T03:57:00.986Z,61626.56
2023-03-29T04:02:04.975Z,61583.22
2023-03-29T04:07:08.105Z,61585.16
2023-03-29T04:12:11.612Z,61593.84
2023-03-29T04:17:16.524Z,61571.13
2023-03-29T04:22:19.410Z,61552.06
2023-03-29T04:27:22.002Z,61599.59
2023-03-29T04:32:25.982Z,61569.69
2023-03-29T04:37:29.340Z,61596.50
2023-03-29T04:42:31.933Z,61598.16
2023-03-29T04:47:36.577Z,61599.75
2023-03-29T04:52:39.577Z,61589.50
2023-03-29T04:57:44.733Z,61565.72
2023-03-29T05:02:48.669Z,61560.56
2023-03-29T05:07:51.767Z,61593.25
2023-03-29T05:12:54.891Z,61579.38
2023-03-29T05:18:00.818Z,61605.31
2023-03-29T05:23:03.481Z,61610.09
2023-03-29T05:28:06.115Z,61612.19
2023-03-29T05:33:10.433Z,61612.34
2023-03-29T05:38:13.641Z,61621.22
2023-03-29T05:43:16.453Z,61632.75
2023-03-29T05:48:20.433Z,61586.31
2023-03-29T05:53:24.877Z,61617.59
2023-03-29T05:58:28.502Z,61636.72
2023-03-29T06:03:32.574Z,61617.72
2023-03-29T06:08:36.077Z,61633.28
2023-03-29T06:13:39.084Z,61639.78
2023-03-29T06:18:43.146Z,61657.53
2023-03-29T06:23:46.057Z,61650.97
2023-03-29T06:28:51.516Z,61676.09
2023-03-29T06:33:57.711Z,61649.97
2023-03-29T06:39:00.282Z,61704.47
2023-03-29T06:44:04.073Z,61680.50
2023-03-29T06:49:08.054Z,61716.50
2023-03-29T06:54:11.693Z,61703.22
2023-03-29T06:59:14.694Z,61725.84
2023-03-29T07:04:18.946Z,61708.25
2023-03-29T07:09:21.570Z,61756.59
2023-03-29T07:14:26.560Z,61736.81
2023-03-29T07:19:30.476Z,61777.06
2023-03-29T07:24:33.101Z,61766.16
2023-03-29T07:29:36.036Z,61766.34
2023-03-29T07:34:39.960Z,61789.41
2023-03-29T07:39:42.515Z,61799.53
2023-03-29T07:44:45.280Z,61857.84
2023-03-29T07:49:49.251Z,61893.28
2023-03-29T07:54:51.818Z,61921.72
2023-03-29T07:59:55.199Z,61946.56
2023-03-29T08:04:59.413Z,61913.38
2023-03-29T08:10:04.418Z,61904.59
2023-03-29T08:15:07.923Z,61975.09
2023-03-29T08:20:14.990Z,61957.78
2023-03-29T08:25:17.710Z,61931.69
2023-03-29T08:30:20.921Z,61874.22
2023-03-29T08:35:24.919Z,61938.09
2023-03-29T08:40:31.169Z,61922.66
2023-03-29T08:45:39.909Z,61969.94
2023-03-29T08:50:48.854Z,62094.50
2023-03-29T08:55:54.043Z,62073.22
2023-03-29T09:00:58.786Z,62047.06
2023-03-29T09:06:06.027Z,62102.53
2023-03-29T09:11:23.705Z,62071.94
2023-03-29T09:16:34.988Z,62051.41
2023-03-29T09:21:46.632Z,62078.16
2023-03-29T09:26:54.808Z,62104.13
2023-03-29T09:31:57.587Z,62091.50
2023-03-29T09:37:08.212Z,62162.66
2023-03-29T09:42:14.155Z,62133.47
2023-03-29T09:47:23.141Z,62120.81
2023-03-29T09:52:27.310Z,62125.91
2023-03-29T09:57:31.541Z,62118.06
2023-03-29T10:02:35.382Z,62121.66
2023-03-29T10:07:44.676Z,62177.88
2023-03-29T10:12:51.727Z,62241.22
2023-03-29T10:17:59.614Z,62256.75
2023-03-29T10:23:03.651Z,62224.81
2023-03-29T10:28:11.952Z,62197.16
2023-03-29T10:33:20.019Z,62227.34
2023-03-29T10:38:28.237Z,62213.22
2023-03-29T10:43:39.280Z,62184.09
2023-03-29T10:48:47.063Z,62277.31
2023-03-29T10:53:51.234Z,62323.22
2023-03-29T10:59:08.599Z,62317.03
2023-03-29T11:04:25.323Z,62376.53
2023-03-29T11:09:47.708Z,62396.19
2023-03-29T11:15:00.356Z,62378.91
2023-03-29T11:20:17.488Z,62299.88
2023-03-29T11:25:29.785Z,62377.59
2023-03-29T11:30:41.100Z,62417.06
2023-03-29T11:35:52.979Z,62389.03
2023-03-29T11:41:02.761Z,62337.75
2023-03-29T11:46:13.000Z,62384.38
2023-03-29T11:51:19.650Z,62395.38
2023-03-29T11:56:29.435Z,62397.41
2023-03-29T12:01:37.762Z,62375.41
2023-03-29T12:06:48.817Z,62342.34
2023-03-29T12:11:58.522Z,62430.50
2023-03-29T12:17:05.822Z,62411.25
2023-03-29T12:22:10.116Z,62388.53
2023-03-29T12:27:27.106Z,62421.75
2023-03-29T12:32:43.994Z,62405.34
2023-03-29T12:37:53.954Z,62472.03
2023-03-29T12:43:02.676Z,62528.19
2023-03-29T12:48:07.547Z,62416.53
2023-03-29T12:53:22.725Z,62432.00
2023-03-29T12:58:51.124Z,62414.38
2023-03-29T13:03:58.286Z,62386.97
2023-03-29T13:09:05.144Z,62377.66
2023-03-29T13:14:14.664Z,62411.66
2023-03-29T13:19:35.310Z,62498.25
2023-03-29T13:24:51.410Z,62477.81
2023-03-29T13:30:06.335Z,62547.53
2023-03-29T13:35:21.556Z,62450.69
2023-03-29T13:40:43.718Z,62425.59
2023-03-29T13:46:05.106Z,62429.31
2023-03-29T13:51:33.566Z,62393.75
2023-03-29T13:56:44.099Z,62385.19
2023-03-29T14:01:54.576Z,62324.41
2023-03-29T14:06:58.631Z,62312.03
2023-03-29T14:12:02.262Z,62318.97
2023-03-29T14:17:06.553Z,62415.06
2023-03-29T14:22:14.677Z,62475.97
2023-03-29T14:27:17.681Z,62442.94
2023-03-29T14:32:29.800Z,62433.16
2023-03-29T14:37:33.795Z,62410.00
2023-03-29T14:42:39.100Z,62475.59
2023-03-29T14:47:45.982Z,62481.09
2023-03-29T14:52:52.504Z,62472.22
2023-03-29T14:57:56.510Z,62426.75
2023-03-29T15:03:02.316Z,62433.50
2023-03-29T15:08:08.830Z,62356.25
2023-03-29T15:13:17.601Z,62413.78
2023-03-29T15:18:28.339Z,62404.78
2023-03-29T15:23:37.792Z,62407.28
2023-03-29T15:28:48.123Z,62414.28
2023-03-29T15:34:03.995Z,62362.72
2023-03-29T15:39:07.397Z,62375.53
2023-03-29T15:44:10.958Z,62330.81
2023-03-29T15:49:15.357Z,62368.97
2023-03-29T15:54:17.927Z,62342.69
2023-03-29T15:59:20.889Z,62361.13
2023-03-29T16:04:26.026Z,62326.00
2023-03-29T16:09:29.472Z,62361.13
2023-03-29T16:14:33.182Z,62360.38
2023-03-29T16:19:37.922Z,62372.84
2023-03-29T16:24:40.613Z,62357.00
2023-03-29T16:29:43.202Z,62340.25
2023-03-29T16:34:47.277Z,62332.94
2023-03-29T16:39:49.817Z,62365.81
2023-03-29T16:44:52.457Z,62349.59
2023-03-29T16:49:56.679Z,62344.19
2023-03-29T16:54:59.652Z,62305.84
2023-03-29T17:00:02.311Z,62341.69
2023-03-29T17:05:07.266Z,62301.38
2023-03-29T17:10:10.848Z,62293.00
2023-03-29T17:15:13.402Z,62290.38
2023-03-29T17:20:17.604Z,62313.38
2023-03-29T17:25:20.262Z,62314.91
2023-03-29T17:30:22.845Z,62348.19
2023-03-29T17:35:27.331Z,62334.00
2023-03-29T17:40:29.914Z,62307.75
2023-03-29T17:45:35.264Z,62269.06
2023-03-29T17:50:39.240Z,62304.00
2023-03-29T17:55:42.109Z,62303.41
2023-03-29T18:00:44.892Z,62269.78
2023-03-29T18:05:49.169Z,62268.13
2023-03-29T18:10:51.853Z,62248.13
2023-03-29T18:15:57.643Z,62317.97
2023-03-29T18:21:02.282Z,62260.94
2023-03-29T18:26:05.840Z,62291.78
2023-03-29T18:31:08.799Z,62278.19
2023-03-29T18:36:13.487Z,62263.34
2023-03-29T18:41:16.292Z,62242.84
2023-03-29T18:46:19.233Z,62231.94
2023-03-29T18:51:23.527Z,62276.34
2023-03-29T18:56:26.355Z,62232.03
2023-03-29T19:01:28.999Z,62261.41
2023-03-29T19:06:33.052Z,62279.13
2023-03-29T19:11:37.009Z,62250.25
2023-03-29T19:16:42.184Z,62261.00
2023-03-29T19:21:47.961Z,62265.22
2023-03-29T19:26:52.025Z,62252.81
2023-03-29T19:31:56.941Z,62288.91
2023-03-29T19:37:01.420Z,62243.81
2023-03-29T19:42:04.119Z,62245.13
2023-03-29T19:47:07.076Z,62230.91
2023-03-29T19:52:11.189Z,62231.69
2023-03-29T19:57:13.828Z,62205.50
2023-03-29T20:02:16.622Z,62204.78
2023-03-29T20:07:20.719Z,62190.16
2023-03-29T20:12:24.542Z,62246.97
2023-03-29T20:17:27.366Z,62176.03
2023-03-29T20:22:32.726Z,62193.19
2023-03-29T20:27:35.327Z,62201.06
2023-03-29T20:32:38.055Z,62233.41
2023-03-29T20:37:42.121Z,62196.91
2023-03-29T20:42:46.383Z,62165.63
2023-03-29T20:47:57.583Z,62227.78
2023-03-29T20:53:03.984Z,62242.00
2023-03-29T20:58:07.834Z,62219.53
2023-03-29T21:03:10.994Z,62232.69
2023-03-29T21:08:15.437Z,62190.38
2023-03-29T21:13:18.994Z,62225.28
2023-03-29T21:18:23.359Z,62216.75
2023-03-29T21:23:27.275Z,62215.56
2023-03-29T21:28:30.420Z,62212.38
2023-03-29T21:33:33.072Z,62230.03
2023-03-29T21:38:37.020Z,62213.72
2023-03-29T21:43:39.710Z,62203.84
2023-03-29T21:48:42.784Z,62201.13
2023-03-29T21:53:46.702Z,62225.53
2023-03-29T21:58:49.265Z,62218.31
2023-03-29T22:03:51.900Z,62230.16
2023-03-29T22:08:55.861Z,62217.94
2023-03-29T22:13:58.529Z,62206.19
2023-03-29T22:19:01.150Z,62233.81
2023-03-29T22:24:05.945Z,62193.97
2023-03-29T22:29:08.561Z,62231.44
2023-03-29T22:34:11.550Z,62237.03
2023-03-29T22:39:15.954Z,62226.13
2023-03-29T22:44:18.564Z,62200.03
2023-03-29T22:49:21.084Z,62245.38
2023-03-29T22:54:24.992Z,62252.72
2023-03-29T22:59:27.933Z,62241.75
2023-03-29T23:04:30.588Z,62240.59
2023-03-29T23:09:35.881Z,62210.66
2023-03-29T23:14:42.491Z,62210.59
2023-03-29T23:19:45.110Z,62224.22
2023-03-29T23:24:49.034Z,62219.38
2023-03-29T23:29:51.594Z,62196.75
2023-03-29T23:34:54.166Z,62181.06
2023-03-29T23:39:58.063Z,62183.94
2023-03-29T23:45:01.145Z,62180.75
2023-03-29T23:50:04.192Z,62154.75
2023-03-29T23:55:09.957Z,62208.53
